Crestline Heights, Alabama
Current Conditions -  °F | °C
As of 9:53 PM on Thursday 20 Nov 2014 (Local Time) from KBHM Reporting Station
Broken Clouds Broken Clouds  
Wind Chill: 48°   Ceiling: 7500
Heat Index: 48°   Visibility: 10mi
Dew Point: 41°   Wind: 0mph
Humidity: 77%   Direction: NA
Pressure: 30.28"   Gusts: NA
Location:  33.5082°N, 86.7399°W
Report Text: KBHM 210353Z 00000KT 10SM BKN075 09/05 A3028 RMK AO2 SLP252 T00890050
Loading
Personal Weather Stations






























Interactive Weather Map New forecast layout! Learn more

10-Day Weather Forecast

Advertisements
Track Severe Weather on mobile